sensor_id;sensor_type;location;lat;lon;timestamp;temperature;humidity
11615;DHT22;5863;52.832;4.758;2022-08-19T00:00:07;17.90;99.90
11615;DHT22;5863;52.832;4.758;2022-08-19T00:02:36;17.90;99.90
11615;DHT22;5863;52.832;4.758;2022-08-19T00:05:03;18.00;99.90
11615;DHT22;5863;52.832;4.758;2022-08-19T00:07:30;17.90;99.90
11615;DHT22;5863;52.832;4.758;2022-08-19T00:09:57;17.90;99.90
11615;DHT22;5863;52.832;4.758;2022-08-19T00:12:24;17.90;99.90
11615;DHT22;5863;52.832;4.758;2022-08-19T00:14:50;17.90;99.90
11615;DHT22;5863;52.832;4.758;2022-08-19T00:17:19;17.90;99.90
11615;DHT22;5863;52.832;4.758;2022-08-19T00:19:48;17.90;99.90
11615;DHT22;5863;52.832;4.758;2022-08-19T00:22:15;17.90;99.90
11615;DHT22;5863;52.832;4.758;2022-08-19T00:24:43;17.80;99.90
11615;DHT22;5863;52.832;4.758;2022-08-19T00:27:11;17.90;99.90
11615;DHT22;5863;52.832;4.758;2022-08-19T00:29:37;17.90;99.90
11615;DHT22;5863;52.832;4.758;2022-08-19T00:32:05;17.90;99.90
11615;DHT22;5863;52.832;4.758;2022-08-19T00:34:32;17.80;99.90
11615;DHT22;5863;52.832;4.758;2022-08-19T00:37:00;17.80;99.90
11615;DHT22;5863;52.832;4.758;2022-08-19T00:39:28;17.80;99.90
11615;DHT22;5863;52.832;4.758;2022-08-19T00:41:55;18.00;99.90
11615;DHT22;5863;52.832;4.758;2022-08-19T00:44:25;17.80;99.90
11615;DHT22;5863;52.832;4.758;2022-08-19T00:46:55;17.80;99.90
11615;DHT22;5863;52.832;4.758;2022-08-19T00:49:25;17.70;99.90
11615;DHT22;5863;52.832;4.758;2022-08-19T00:51:57;17.80;99.90
11615;DHT22;5863;52.832;4.758;2022-08-19T00:54:27;17.80;99.90
11615;DHT22;5863;52.832;4.758;2022-08-19T00:56:57;17.80;99.90
11615;DHT22;5863;52.832;4.758;2022-08-19T00:59:25;17.80;99.90
11615;DHT22;5863;52.832;4.758;2022-08-19T01:01:52;17.80;99.90
11615;DHT22;5863;52.832;4.758;2022-08-19T01:04:19;17.80;99.90
11615;DHT22;5863;52.832;4.758;2022-08-19T01:06:45;17.70;99.90
11615;DHT22;5863;52.832;4.758;2022-08-19T01:09:12;17.80;99.90
11615;DHT22;5863;52.832;4.758;2022-08-19T01:11:41;17.80;99.90
11615;DHT22;5863;52.832;4.758;2022-08-19T01:14:10;17.80;99.90
11615;DHT22;5863;52.832;4.758;2022-08-19T01:16:38;17.80;99.90
11615;DHT22;5863;52.832;4.758;2022-08-19T01:19:10;17.80;99.90
11615;DHT22;5863;52.832;4.758;2022-08-19T01:21:42;17.80;99.90
11615;DHT22;5863;52.832;4.758;2022-08-19T01:24:12;17.80;99.90
11615;DHT22;5863;52.832;4.758;2022-08-19T01:26:40;17.80;99.90
11615;DHT22;5863;52.832;4.758;2022-08-19T01:29:08;17.80;99.90
11615;DHT22;5863;52.832;4.758;2022-08-19T01:31:35;17.80;99.90
11615;DHT22;5863;52.832;4.758;2022-08-19T01:34:05;17.80;99.90
11615;DHT22;5863;52.832;4.758;2022-08-19T01:36:34;17.80;99.90
11615;DHT22;5863;52.832;4.758;2022-08-19T01:39:04;17.80;99.90
11615;DHT22;5863;52.832;4.758;2022-08-19T01:41:33;17.80;99.90
11615;DHT22;5863;52.832;4.758;2022-08-19T01:43:59;17.80;99.90
11615;DHT22;5863;52.832;4.758;2022-08-19T01:46:29;17.70;99.90
11615;DHT22;5863;52.832;4.758;2022-08-19T01:48:56;17.70;99.90
11615;DHT22;5863;52.832;4.758;2022-08-19T01:51:23;17.60;99.90
11615;DHT22;5863;52.832;4.758;2022-08-19T01:53:51;17.60;99.90
11615;DHT22;5863;52.832;4.758;2022-08-19T01:56:18;17.60;99.90
11615;DHT22;5863;52.832;4.758;2022-08-19T01:58:49;17.60;99.90
11615;DHT22;5863;52.832;4.758;2022-08-19T02:01:18;17.60;99.90
11615;DHT22;5863;52.832;4.758;2022-08-19T02:03:45;17.60;99.90
11615;DHT22;5863;52.832;4.758;2022-08-19T02:06:12;17.60;99.90
11615;DHT22;5863;52.832;4.758;2022-08-19T02:08:40;17.60;99.90
11615;DHT22;5863;52.832;4.758;2022-08-19T02:11:07;17.60;99.90
11615;DHT22;5863;52.832;4.758;2022-08-19T02:13:34;17.60;99.90
11615;DHT22;5863;52.832;4.758;2022-08-19T02:16:05;17.60;99.90
11615;DHT22;5863;52.832;4.758;2022-08-19T02:18:31;17.60;99.90
11615;DHT22;5863;52.832;4.758;2022-08-19T02:20:59;17.60;99.90
11615;DHT22;5863;52.832;4.758;2022-08-19T02:23:25;17.60;99.90
11615;DHT22;5863;52.832;4.758;2022-08-19T02:25:52;17.60;99.90
11615;DHT22;5863;52.832;4.758;2022-08-19T02:28:19;17.70;99.90
11615;DHT22;5863;52.832;4.758;2022-08-19T02:30:47;17.80;99.90
11615;DHT22;5863;52.832;4.758;2022-08-19T02:33:16;17.80;99.90
11615;DHT22;5863;52.832;4.758;2022-08-19T02:35:44;17.90;99.90
11615;DHT22;5863;52.832;4.758;2022-08-19T02:38:11;17.90;99.90
11615;DHT22;5863;52.832;4.758;2022-08-19T02:40:55;17.90;99.90
11615;DHT22;5863;52.832;4.758;2022-08-19T02:43:25;18.00;99.90
11615;DHT22;5863;52.832;4.758;2022-08-19T02:45:54;18.00;99.90
11615;DHT22;5863;52.832;4.758;2022-08-19T02:48:23;18.00;99.90
11615;DHT22;5863;52.832;4.758;2022-08-19T02:50:52;18.00;99.90
11615;DHT22;5863;52.832;4.758;2022-08-19T02:53:21;18.10;99.90
11615;DHT22;5863;52.832;4.758;2022-08-19T02:55:48;18.10;99.90
11615;DHT22;5863;52.832;4.758;2022-08-19T02:58:16;18.00;99.90
11615;DHT22;5863;52.832;4.758;2022-08-19T03:00:46;18.00;99.90
11615;DHT22;5863;52.832;4.758;2022-08-19T03:03:13;17.90;99.90
11615;DHT22;5863;52.832;4.758;2022-08-19T03:05:42;17.90;99.90
11615;DHT22;5863;52.832;4.758;2022-08-19T03:08:09;17.90;99.90
11615;DHT22;5863;52.832;4.758;2022-08-19T03:10:41;17.90;99.90
11615;DHT22;5863;52.832;4.758;2022-08-19T03:13:10;17.80;99.90
11615;DHT22;5863;52.832;4.758;2022-08-19T03:15:39;17.80;99.90
11615;DHT22;5863;52.832;4.758;2022-08-19T03:18:06;17.90;99.90
11615;DHT22;5863;52.832;4.758;2022-08-19T03:20:33;17.90;99.90
11615;DHT22;5863;52.832;4.758;2022-08-19T03:23:01;18.00;99.90
11615;DHT22;5863;52.832;4.758;2022-08-19T03:25:28;18.00;99.90
11615;DHT22;5863;52.832;4.758;2022-08-19T03:27:54;18.00;99.90
11615;DHT22;5863;52.832;4.758;2022-08-19T03:30:21;18.00;99.90
11615;DHT22;5863;52.832;4.758;2022-08-19T03:32:48;18.10;99.90
11615;DHT22;5863;52.832;4.758;2022-08-19T03:35:15;18.10;99.90
11615;DHT22;5863;52.832;4.758;2022-08-19T03:37:41;18.10;99.90
11615;DHT22;5863;52.832;4.758;2022-08-19T03:40:10;18.10;99.90
11615;DHT22;5863;52.832;4.758;2022-08-19T03:42:37;18.10;99.90
11615;DHT22;5863;52.832;4.758;2022-08-19T03:45:05;18.10;99.90
11615;DHT22;5863;52.832;4.758;2022-08-19T03:47:32;18.10;99.90
11615;DHT22;5863;52.832;4.758;2022-08-19T03:49:59;18.20;99.90
11615;DHT22;5863;52.832;4.758;2022-08-19T03:52:26;18.10;99.90
11615;DHT22;5863;52.832;4.758;2022-08-19T03:54:52;18.10;99.90
11615;DHT22;5863;52.832;4.758;2022-08-19T03:57:23;18.00;99.90
11615;DHT22;5863;52.832;4.758;2022-08-19T03:59:49;18.10;99.90
11615;DHT22;5863;52.832;4.758;2022-08-19T04:02:19;18.00;99.90
11615;DHT22;5863;52.832;4.758;2022-08-19T04:04:46;18.10;99.90
11615;DHT22;5863;52.832;4.758;2022-08-19T04:07:14;18.00;99.90
11615;DHT22;5863;52.832;4.758;2022-08-19T04:09:41;18.10;99.90
11615;DHT22;5863;52.832;4.758;2022-08-19T04:12:08;18.10;99.90
11615;DHT22;5863;52.832;4.758;2022-08-19T04:14:37;18.00;99.90
11615;DHT22;5863;52.832;4.758;2022-08-19T04:17:04;18.00;99.90
11615;DHT22;5863;52.832;4.758;2022-08-19T04:19:32;18.00;99.90
11615;DHT22;5863;52.832;4.758;2022-08-19T04:21:59;18.00;99.90
11615;DHT22;5863;52.832;4.758;2022-08-19T04:24:26;18.00;99.90
11615;DHT22;5863;52.832;4.758;2022-08-19T04:26:53;17.90;99.90
11615;DHT22;5863;52.832;4.758;2022-08-19T04:29:22;17.90;99.90
11615;DHT22;5863;52.832;4.758;2022-08-19T04:31:53;17.90;99.90
11615;DHT22;5863;52.832;4.758;2022-08-19T04:34:23;17.90;99.90
11615;DHT22;5863;52.832;4.758;2022-08-19T04:36:51;17.90;99.90
11615;DHT22;5863;52.832;4.758;2022-08-19T04:39:20;17.90;99.90
11615;DHT22;5863;52.832;4.758;2022-08-19T04:41:47;18.00;99.90
11615;DHT22;5863;52.832;4.758;2022-08-19T04:44:32;18.00;99.90
11615;DHT22;5863;52.832;4.758;2022-08-19T04:47:00;18.00;99.90
11615;DHT22;5863;52.832;4.758;2022-08-19T04:49:28;18.00;99.90
11615;DHT22;5863;52.832;4.758;2022-08-19T04:51:55;18.00;99.90
11615;DHT22;5863;52.832;4.758;2022-08-19T04:54:23;18.00;99.90
11615;DHT22;5863;52.832;4.758;2022-08-19T04:56:51;18.10;99.90
11615;DHT22;5863;52.832;4.758;2022-08-19T04:59:19;18.00;99.90
11615;DHT22;5863;52.832;4.758;2022-08-19T05:01:46;18.10;99.90
11615;DHT22;5863;52.832;4.758;2022-08-19T05:04:19;18.20;99.90
11615;DHT22;5863;52.832;4.758;2022-08-19T05:06:46;18.30;99.90
11615;DHT22;5863;52.832;4.758;2022-08-19T05:09:13;18.40;99.90
11615;DHT22;5863;52.832;4.758;2022-08-19T05:11:41;18.50;99.90
11615;DHT22;5863;52.832;4.758;2022-08-19T05:14:08;18.60;99.90
11615;DHT22;5863;52.832;4.758;2022-08-19T05:16:37;18.70;99.90
11615;DHT22;5863;52.832;4.758;2022-08-19T05:19:04;18.90;99.90
11615;DHT22;5863;52.832;4.758;2022-08-19T05:21:50;19.20;99.90
11615;DHT22;5863;52.832;4.758;2022-08-19T05:24:36;19.50;99.90
11615;DHT22;5863;52.832;4.758;2022-08-19T05:27:03;19.80;99.90
11615;DHT22;5863;52.832;4.758;2022-08-19T05:29:31;20.00;99.90
11615;DHT22;5863;52.832;4.758;2022-08-19T05:32:00;20.30;99.90
11615;DHT22;5863;52.832;4.758;2022-08-19T05:34:27;20.60;99.90
11615;DHT22;5863;52.832;4.758;2022-08-19T05:36:57;20.60;99.90
11615;DHT22;5863;52.832;4.758;2022-08-19T05:39:27;20.50;99.90
11615;DHT22;5863;52.832;4.758;2022-08-19T05:41:57;20.40;99.90
11615;DHT22;5863;52.832;4.758;2022-08-19T05:44:25;20.30;99.90
11615;DHT22;5863;52.832;4.758;2022-08-19T05:46:52;20.10;99.90
11615;DHT22;5863;52.832;4.758;2022-08-19T05:49:21;20.10;99.90
11615;DHT22;5863;52.832;4.758;2022-08-19T05:51:49;20.00;99.90
11615;DHT22;5863;52.832;4.758;2022-08-19T05:54:19;20.00;99.90
11615;DHT22;5863;52.832;4.758;2022-08-19T05:56:46;19.90;99.90
11615;DHT22;5863;52.832;4.758;2022-08-19T05:59:14;19.80;99.90
11615;DHT22;5863;52.832;4.758;2022-08-19T06:01:43;19.80;99.90
11615;DHT22;5863;52.832;4.758;2022-08-19T06:04:10;19.90;99.90
11615;DHT22;5863;52.832;4.758;2022-08-19T06:06:39;19.80;99.90
11615;DHT22;5863;52.832;4.758;2022-08-19T06:09:07;20.00;99.90
11615;DHT22;5863;52.832;4.758;2022-08-19T06:11:38;20.00;99.90
11615;DHT22;5863;52.832;4.758;2022-08-19T06:14:09;20.10;99.90
11615;DHT22;5863;52.832;4.758;2022-08-19T06:16:36;20.30;99.90
11615;DHT22;5863;52.832;4.758;2022-08-19T06:19:05;20.50;99.90
11615;DHT22;5863;52.832;4.758;2022-08-19T06:21:34;20.80;99.90
11615;DHT22;5863;52.832;4.758;2022-08-19T06:24:03;21.00;99.90
11615;DHT22;5863;52.832;4.758;2022-08-19T06:26:30;21.10;99.90
11615;DHT22;5863;52.832;4.758;2022-08-19T06:28:58;21.00;99.90
11615;DHT22;5863;52.832;4.758;2022-08-19T06:31:27;21.10;99.90
11615;DHT22;5863;52.832;4.758;2022-08-19T06:33:54;21.30;99.90
11615;DHT22;5863;52.832;4.758;2022-08-19T06:36:22;21.50;99.90
11615;DHT22;5863;52.832;4.758;2022-08-19T06:38:52;21.70;99.90
11615;DHT22;5863;52.832;4.758;2022-08-19T06:41:19;21.80;99.90
11615;DHT22;5863;52.832;4.758;2022-08-19T06:43:46;21.90;99.90
11615;DHT22;5863;52.832;4.758;2022-08-19T06:46:16;22.00;99.90
11615;DHT22;5863;52.832;4.758;2022-08-19T06:48:44;22.30;99.90
11615;DHT22;5863;52.832;4.758;2022-08-19T06:51:10;22.70;99.90
11615;DHT22;5863;52.832;4.758;2022-08-19T06:53:37;23.30;99.90
11615;DHT22;5863;52.832;4.758;2022-08-19T06:56:05;23.80;99.90
11615;DHT22;5863;52.832;4.758;2022-08-19T06:58:32;24.30;99.90
11615;DHT22;5863;52.832;4.758;2022-08-19T07:01:00;24.50;99.90
11615;DHT22;5863;52.832;4.758;2022-08-19T07:03:31;24.70;99.90
11615;DHT22;5863;52.832;4.758;2022-08-19T07:06:02;25.10;99.90
11615;DHT22;5863;52.832;4.758;2022-08-19T07:08:29;25.20;99.90
11615;DHT22;5863;52.832;4.758;2022-08-19T07:10:57;25.20;99.90
11615;DHT22;5863;52.832;4.758;2022-08-19T07:13:24;25.40;99.90
11615;DHT22;5863;52.832;4.758;2022-08-19T07:15:53;25.80;99.90
11615;DHT22;5863;52.832;4.758;2022-08-19T07:18:20;26.50;99.90
11615;DHT22;5863;52.832;4.758;2022-08-19T07:20:49;27.00;99.90
11615;DHT22;5863;52.832;4.758;2022-08-19T07:23:16;27.30;99.90
11615;DHT22;5863;52.832;4.758;2022-08-19T07:25:43;27.80;99.90
11615;DHT22;5863;52.832;4.758;2022-08-19T07:28:11;28.30;99.90
11615;DHT22;5863;52.832;4.758;2022-08-19T07:30:38;28.70;99.90
11615;DHT22;5863;52.832;4.758;2022-08-19T07:33:06;29.10;99.90
11615;DHT22;5863;52.832;4.758;2022-08-19T07:35:32;29.40;99.90
11615;DHT22;5863;52.832;4.758;2022-08-19T07:38:01;29.10;99.90
11615;DHT22;5863;52.832;4.758;2022-08-19T07:40:29;28.80;99.90
11615;DHT22;5863;52.832;4.758;2022-08-19T07:42:56;28.40;99.90
11615;DHT22;5863;52.832;4.758;2022-08-19T07:45:23;28.30;99.90
11615;DHT22;5863;52.832;4.758;2022-08-19T07:47:50;28.70;99.90
11615;DHT22;5863;52.832;4.758;2022-08-19T07:50:18;29.10;99.90
11615;DHT22;5863;52.832;4.758;2022-08-19T07:52:45;29.40;99.90
11615;DHT22;5863;52.832;4.758;2022-08-19T07:55:14;29.50;99.90
11615;DHT22;5863;52.832;4.758;2022-08-19T07:57:40;29.50;99.90
11615;DHT22;5863;52.832;4.758;2022-08-19T08:00:08;29.60;99.90
11615;DHT22;5863;52.832;4.758;2022-08-19T08:02:35;29.70;99.90
11615;DHT22;5863;52.832;4.758;2022-08-19T08:05:02;29.70;99.90
11615;DHT22;5863;52.832;4.758;2022-08-19T08:07:47;29.80;99.90
11615;DHT22;5863;52.832;4.758;2022-08-19T08:10:32;29.90;99.90
11615;DHT22;5863;52.832;4.758;2022-08-19T08:12:59;30.10;99.90
11615;DHT22;5863;52.832;4.758;2022-08-19T08:15:26;30.30;99.80
11615;DHT22;5863;52.832;4.758;2022-08-19T08:17:53;30.30;99.40
11615;DHT22;5863;52.832;4.758;2022-08-19T08:20:20;30.20;99.30
11615;DHT22;5863;52.832;4.758;2022-08-19T08:22:47;30.20;99.20
11615;DHT22;5863;52.832;4.758;2022-08-19T08:25:34;29.90;99.20
11615;DHT22;5863;52.832;4.758;2022-08-19T08:28:02;29.50;99.50
11615;DHT22;5863;52.832;4.758;2022-08-19T08:30:30;29.10;99.90
11615;DHT22;5863;52.832;4.758;2022-08-19T08:32:58;28.60;99.90
11615;DHT22;5863;52.832;4.758;2022-08-19T08:35:25;28.40;99.90
11615;DHT22;5863;52.832;4.758;2022-08-19T08:37:53;28.20;99.90
11615;DHT22;5863;52.832;4.758;2022-08-19T08:40:27;28.10;99.90
11615;DHT22;5863;52.832;4.758;2022-08-19T08:43:01;27.90;99.90
11615;DHT22;5863;52.832;4.758;2022-08-19T08:45:31;27.80;99.90
11615;DHT22;5863;52.832;4.758;2022-08-19T08:48:02;27.70;99.90
11615;DHT22;5863;52.832;4.758;2022-08-19T08:50:34;27.70;99.90
11615;DHT22;5863;52.832;4.758;2022-08-19T08:53:06;27.60;99.90
11615;DHT22;5863;52.832;4.758;2022-08-19T08:55:34;27.50;99.90
11615;DHT22;5863;52.832;4.758;2022-08-19T08:58:05;27.40;99.90
11615;DHT22;5863;52.832;4.758;2022-08-19T09:00:34;27.30;99.90
11615;DHT22;5863;52.832;4.758;2022-08-19T09:03:02;27.30;99.90
11615;DHT22;5863;52.832;4.758;2022-08-19T09:05:37;27.40;99.90
11615;DHT22;5863;52.832;4.758;2022-08-19T09:08:10;27.30;99.90
11615;DHT22;5863;52.832;4.758;2022-08-19T09:10:44;27.40;99.90
11615;DHT22;5863;52.832;4.758;2022-08-19T09:13:24;27.40;99.90
11615;DHT22;5863;52.832;4.758;2022-08-19T09:16:05;27.40;99.90
11615;DHT22;5863;52.832;4.758;2022-08-19T09:18:40;27.40;99.90
11615;DHT22;5863;52.832;4.758;2022-08-19T09:21:07;27.40;99.90
11615;DHT22;5863;52.832;4.758;2022-08-19T09:23:34;27.40;99.90
11615;DHT22;5863;52.832;4.758;2022-08-19T09:26:04;27.30;99.90
11615;DHT22;5863;52.832;4.758;2022-08-19T09:28:34;27.30;99.90
11615;DHT22;5863;52.832;4.758;2022-08-19T09:31:02;27.20;99.90
11615;DHT22;5863;52.832;4.758;2022-08-19T09:33:29;27.20;99.90
11615;DHT22;5863;52.832;4.758;2022-08-19T09:36:02;27.30;99.90
11615;DHT22;5863;52.832;4.758;2022-08-19T09:38:29;27.30;99.90
11615;DHT22;5863;52.832;4.758;2022-08-19T09:41:02;27.30;99.90
11615;DHT22;5863;52.832;4.758;2022-08-19T09:43:30;27.30;99.90
11615;DHT22;5863;52.832;4.758;2022-08-19T09:45:59;27.30;99.90
11615;DHT22;5863;52.832;4.758;2022-08-19T09:48:26;27.30;99.90
11615;DHT22;5863;52.832;4.758;2022-08-19T09:50:53;27.20;99.90
11615;DHT22;5863;52.832;4.758;2022-08-19T09:53:20;27.10;99.90
11615;DHT22;5863;52.832;4.758;2022-08-19T09:55:49;27.10;99.90
11615;DHT22;5863;52.832;4.758;2022-08-19T09:58:16;27.10;99.90
11615;DHT22;5863;52.832;4.758;2022-08-19T10:00:43;27.10;99.90
11615;DHT22;5863;52.832;4.758;2022-08-19T10:03:12;27.10;99.90
11615;DHT22;5863;52.832;4.758;2022-08-19T10:05:39;27.30;99.90
11615;DHT22;5863;52.832;4.758;2022-08-19T10:08:15;27.30;99.90
11615;DHT22;5863;52.832;4.758;2022-08-19T10:10:42;27.30;99.90
11615;DHT22;5863;52.832;4.758;2022-08-19T10:13:09;27.40;99.90
11615;DHT22;5863;52.832;4.758;2022-08-19T10:15:38;27.40;99.90
11615;DHT22;5863;52.832;4.758;2022-08-19T10:18:06;27.40;99.90
11615;DHT22;5863;52.832;4.758;2022-08-19T10:20:34;27.30;99.90
11615;DHT22;5863;52.832;4.758;2022-08-19T10:23:02;27.30;99.90
11615;DHT22;5863;52.832;4.758;2022-08-19T10:25:29;27.30;99.90
11615;DHT22;5863;52.832;4.758;2022-08-19T10:27:56;27.30;99.90
11615;DHT22;5863;52.832;4.758;2022-08-19T10:30:23;27.20;99.90
11615;DHT22;5863;52.832;4.758;2022-08-19T10:32:49;27.20;99.90
11615;DHT22;5863;52.832;4.758;2022-08-19T10:35:16;27.10;99.90
11615;DHT22;5863;52.832;4.758;2022-08-19T10:37:44;27.10;99.90
11615;DHT22;5863;52.832;4.758;2022-08-19T10:40:12;27.20;99.90
11615;DHT22;5863;52.832;4.758;2022-08-19T10:42:38;27.10;99.90
11615;DHT22;5863;52.832;4.758;2022-08-19T10:45:06;27.00;99.90
11615;DHT22;5863;52.832;4.758;2022-08-19T10:47:35;26.90;99.90
11615;DHT22;5863;52.832;4.758;2022-08-19T10:50:02;26.90;99.90
11615;DHT22;5863;52.832;4.758;2022-08-19T10:52:49;26.90;99.90
11615;DHT22;5863;52.832;4.758;2022-08-19T10:55:18;26.80;99.90
11615;DHT22;5863;52.832;4.758;2022-08-19T10:58:03;26.70;99.90
11615;DHT22;5863;52.832;4.758;2022-08-19T11:00:29;26.60;99.90
11615;DHT22;5863;52.832;4.758;2022-08-19T11:02:58;26.50;99.90
11615;DHT22;5863;52.832;4.758;2022-08-19T11:05:24;26.40;99.90
11615;DHT22;5863;52.832;4.758;2022-08-19T11:07:52;26.40;99.90
11615;DHT22;5863;52.832;4.758;2022-08-19T11:10:19;26.30;99.90
11615;DHT22;5863;52.832;4.758;2022-08-19T11:12:47;26.40;99.90
11615;DHT22;5863;52.832;4.758;2022-08-19T11:15:14;26.40;99.90
11615;DHT22;5863;52.832;4.758;2022-08-19T11:17:41;26.30;99.90
11615;DHT22;5863;52.832;4.758;2022-08-19T11:20:10;26.30;99.90
11615;DHT22;5863;52.832;4.758;2022-08-19T11:22:37;26.40;99.90
11615;DHT22;5863;52.832;4.758;2022-08-19T11:25:07;26.50;99.90
11615;DHT22;5863;52.832;4.758;2022-08-19T11:27:38;26.70;99.90
11615;DHT22;5863;52.832;4.758;2022-08-19T11:30:08;26.90;99.90
11615;DHT22;5863;52.832;4.758;2022-08-19T11:32:36;27.10;99.90
11615;DHT22;5863;52.832;4.758;2022-08-19T11:35:03;27.20;99.90
11615;DHT22;5863;52.832;4.758;2022-08-19T11:37:30;27.20;99.90
11615;DHT22;5863;52.832;4.758;2022-08-19T11:39:57;27.10;99.90
11615;DHT22;5863;52.832;4.758;2022-08-19T11:42:26;27.00;99.90
11615;DHT22;5863;52.832;4.758;2022-08-19T11:45:10;26.90;99.90
11615;DHT22;5863;52.832;4.758;2022-08-19T11:47:39;26.70;99.90
11615;DHT22;5863;52.832;4.758;2022-08-19T11:50:06;26.70;99.90
11615;DHT22;5863;52.832;4.758;2022-08-19T11:52:33;26.60;99.90
11615;DHT22;5863;52.832;4.758;2022-08-19T11:55:00;26.60;99.90
11615;DHT22;5863;52.832;4.758;2022-08-19T11:57:28;26.60;99.90
11615;DHT22;5863;52.832;4.758;2022-08-19T11:59:55;26.60;99.90
11615;DHT22;5863;52.832;4.758;2022-08-19T12:02:22;26.60;99.90
11615;DHT22;5863;52.832;4.758;2022-08-19T12:04:48;26.60;99.90
11615;DHT22;5863;52.832;4.758;2022-08-19T12:07:15;26.50;99.90
11615;DHT22;5863;52.832;4.758;2022-08-19T12:09:42;26.40;99.90
11615;DHT22;5863;52.832;4.758;2022-08-19T12:12:09;26.40;99.90
11615;DHT22;5863;52.832;4.758;2022-08-19T12:14:37;26.40;99.90
11615;DHT22;5863;52.832;4.758;2022-08-19T12:17:04;26.30;99.90
11615;DHT22;5863;52.832;4.758;2022-08-19T12:19:32;26.20;99.90
11615;DHT22;5863;52.832;4.758;2022-08-19T12:22:01;26.00;99.90
11615;DHT22;5863;52.832;4.758;2022-08-19T12:24:30;25.90;99.90
11615;DHT22;5863;52.832;4.758;2022-08-19T12:26:57;25.80;99.90
11615;DHT22;5863;52.832;4.758;2022-08-19T12:29:27;25.70;99.90
11615;DHT22;5863;52.832;4.758;2022-08-19T12:31:56;25.60;99.90
11615;DHT22;5863;52.832;4.758;2022-08-19T12:34:26;25.60;99.90
11615;DHT22;5863;52.832;4.758;2022-08-19T12:36:55;25.50;99.90
11615;DHT22;5863;52.832;4.758;2022-08-19T12:39:22;25.50;99.90
11615;DHT22;5863;52.832;4.758;2022-08-19T12:41:49;25.50;99.90
11615;DHT22;5863;52.832;4.758;2022-08-19T12:44:16;25.50;99.90
11615;DHT22;5863;52.832;4.758;2022-08-19T12:46:43;25.50;99.90
11615;DHT22;5863;52.832;4.758;2022-08-19T12:49:11;25.50;99.90
11615;DHT22;5863;52.832;4.758;2022-08-19T12:51:38;25.40;99.90
11615;DHT22;5863;52.832;4.758;2022-08-19T12:54:04;25.40;99.90
11615;DHT22;5863;52.832;4.758;2022-08-19T12:56:32;25.50;99.90
11615;DHT22;5863;52.832;4.758;2022-08-19T12:59:01;25.50;99.90
11615;DHT22;5863;52.832;4.758;2022-08-19T13:01:28;25.50;99.90
11615;DHT22;5863;52.832;4.758;2022-08-19T13:03:55;25.60;99.90
11615;DHT22;5863;52.832;4.758;2022-08-19T13:06:23;25.50;99.90
11615;DHT22;5863;52.832;4.758;2022-08-19T13:08:50;25.40;99.90
11615;DHT22;5863;52.832;4.758;2022-08-19T13:11:19;25.40;99.90
11615;DHT22;5863;52.832;4.758;2022-08-19T13:13:51;25.50;99.90
11615;DHT22;5863;52.832;4.758;2022-08-19T13:16:18;25.50;99.90
11615;DHT22;5863;52.832;4.758;2022-08-19T13:18:47;25.50;99.90
11615;DHT22;5863;52.832;4.758;2022-08-19T13:21:15;25.50;99.90
11615;DHT22;5863;52.832;4.758;2022-08-19T13:23:43;25.50;99.90
11615;DHT22;5863;52.832;4.758;2022-08-19T13:26:11;25.50;99.90
11615;DHT22;5863;52.832;4.758;2022-08-19T13:28:38;25.50;99.90
11615;DHT22;5863;52.832;4.758;2022-08-19T13:31:25;25.50;99.90
11615;DHT22;5863;52.832;4.758;2022-08-19T13:34:11;25.50;99.90
11615;DHT22;5863;52.832;4.758;2022-08-19T13:36:38;25.50;99.90
11615;DHT22;5863;52.832;4.758;2022-08-19T13:39:07;25.60;99.90
11615;DHT22;5863;52.832;4.758;2022-08-19T13:41:35;25.40;99.90
11615;DHT22;5863;52.832;4.758;2022-08-19T13:44:03;25.50;99.90
11615;DHT22;5863;52.832;4.758;2022-08-19T13:46:29;25.50;99.90
11615;DHT22;5863;52.832;4.758;2022-08-19T13:48:56;25.50;99.90
11615;DHT22;5863;52.832;4.758;2022-08-19T13:51:23;25.40;99.90
11615;DHT22;5863;52.832;4.758;2022-08-19T13:53:50;25.40;99.90
11615;DHT22;5863;52.832;4.758;2022-08-19T13:56:20;25.30;99.90
11615;DHT22;5863;52.832;4.758;2022-08-19T13:58:46;25.30;99.90
11615;DHT22;5863;52.832;4.758;2022-08-19T14:01:19;25.30;99.90
11615;DHT22;5863;52.832;4.758;2022-08-19T14:03:46;25.20;99.90
11615;DHT22;5863;52.832;4.758;2022-08-19T14:06:13;25.10;99.90
11615;DHT22;5863;52.832;4.758;2022-08-19T14:08:39;25.10;99.90
11615;DHT22;5863;52.832;4.758;2022-08-19T14:11:07;25.10;99.90
11615;DHT22;5863;52.832;4.758;2022-08-19T14:13:35;25.10;99.90
11615;DHT22;5863;52.832;4.758;2022-08-19T14:16:07;25.10;99.90
11615;DHT22;5863;52.832;4.758;2022-08-19T14:18:34;25.00;99.90
11615;DHT22;5863;52.832;4.758;2022-08-19T14:21:01;25.00;99.90
11615;DHT22;5863;52.832;4.758;2022-08-19T14:23:28;25.00;99.90
11615;DHT22;5863;52.832;4.758;2022-08-19T14:26:03;25.00;99.90
11615;DHT22;5863;52.832;4.758;2022-08-19T14:28:30;24.90;99.90
11615;DHT22;5863;52.832;4.758;2022-08-19T14:30:58;24.90;99.90
11615;DHT22;5863;52.832;4.758;2022-08-19T14:33:25;24.90;99.90
11615;DHT22;5863;52.832;4.758;2022-08-19T14:35:51;24.90;99.90
11615;DHT22;5863;52.832;4.758;2022-08-19T14:38:18;24.90;99.90
11615;DHT22;5863;52.832;4.758;2022-08-19T14:40:45;24.90;99.90
11615;DHT22;5863;52.832;4.758;2022-08-19T14:43:12;24.90;99.90
11615;DHT22;5863;52.832;4.758;2022-08-19T14:45:39;24.90;99.90
11615;DHT22;5863;52.832;4.758;2022-08-19T14:48:08;24.80;99.90
11615;DHT22;5863;52.832;4.758;2022-08-19T14:50:35;24.80;99.90
11615;DHT22;5863;52.832;4.758;2022-08-19T14:53:05;24.70;99.90
11615;DHT22;5863;52.832;4.758;2022-08-19T14:55:33;24.70;99.90
11615;DHT22;5863;52.832;4.758;2022-08-19T14:57:59;24.50;99.90
11615;DHT22;5863;52.832;4.758;2022-08-19T15:00:26;24.50;99.90
11615;DHT22;5863;52.832;4.758;2022-08-19T15:02:55;24.50;99.90
11615;DHT22;5863;52.832;4.758;2022-08-19T15:05:24;24.40;99.90
11615;DHT22;5863;52.832;4.758;2022-08-19T15:07:51;24.50;99.90
11615;DHT22;5863;52.832;4.758;2022-08-19T15:10:20;24.40;99.90
11615;DHT22;5863;52.832;4.758;2022-08-19T15:12:49;24.20;99.90
11615;DHT22;5863;52.832;4.758;2022-08-19T15:15:15;24.20;99.90
11615;DHT22;5863;52.832;4.758;2022-08-19T15:17:43;24.10;99.90
11615;DHT22;5863;52.832;4.758;2022-08-19T15:20:12;24.10;99.90
11615;DHT22;5863;52.832;4.758;2022-08-19T15:22:40;24.00;99.90
11615;DHT22;5863;52.832;4.758;2022-08-19T15:25:10;24.00;99.90
11615;DHT22;5863;52.832;4.758;2022-08-19T15:27:37;23.80;99.90
11615;DHT22;5863;52.832;4.758;2022-08-19T15:30:06;23.80;99.90
11615;DHT22;5863;52.832;4.758;2022-08-19T15:32:33;23.80;99.90
11615;DHT22;5863;52.832;4.758;2022-08-19T15:35:02;23.70;99.90
11615;DHT22;5863;52.832;4.758;2022-08-19T15:37:29;23.70;99.90
11615;DHT22;5863;52.832;4.758;2022-08-19T15:39:57;23.70;99.90
11615;DHT22;5863;52.832;4.758;2022-08-19T15:42:23;23.60;99.90
11615;DHT22;5863;52.832;4.758;2022-08-19T15:44:51;23.60;99.90
11615;DHT22;5863;52.832;4.758;2022-08-19T15:47:18;23.70;99.90
11615;DHT22;5863;52.832;4.758;2022-08-19T15:49:45;23.70;99.90
11615;DHT22;5863;52.832;4.758;2022-08-19T15:52:11;23.70;99.90